createdAt,value
2022-12-29T00:01:25.571Z,6.17
2022-12-29T00:03:53.979Z,3.37
2022-12-29T00:06:22.463Z,3.47
2022-12-29T00:08:50.874Z,3.53
2022-12-29T00:11:20.095Z,4.77
2022-12-29T00:14:06.093Z,3.60
2022-12-29T00:16:36.059Z,3.07
2022-12-29T00:19:04.953Z,4.20
2022-12-29T00:21:50.851Z,4.17
2022-12-29T00:24:37.207Z,3.57
2022-12-29T00:27:31.167Z,5.90
2022-12-29T00:30:18.467Z,4.53
2022-12-29T00:33:06.054Z,3.00
2022-12-29T00:35:35.041Z,4.40
2022-12-29T00:38:21.923Z,4.00
2022-12-29T00:41:08.511Z,5.03
2022-12-29T00:43:56.190Z,3.20
2022-12-29T00:46:24.924Z,3.73
2022-12-29T00:49:12.581Z,3.63
2022-12-29T00:51:41.086Z,5.40
2022-12-29T00:54:10.349Z,4.00
2022-12-29T00:56:38.929Z,3.23
2022-12-29T00:59:08.013Z,3.80
2022-12-29T01:01:37.958Z,3.80
2022-12-29T01:04:08.019Z,4.60
2022-12-29T01:06:36.620Z,2.20
2022-12-29T01:09:22.791Z,4.60
2022-12-29T01:11:51.119Z,3.03
2022-12-29T01:14:19.802Z,2.20
2022-12-29T01:16:48.508Z,5.80
2022-12-29T01:19:18.443Z,2.40
2022-12-29T01:21:46.840Z,3.13
2022-12-29T01:24:15.448Z,4.97
2022-12-29T01:26:43.857Z,2.33
2022-12-29T01:29:13.354Z,3.00
2022-12-29T01:31:42.788Z,4.87
2022-12-29T01:34:11.234Z,3.60
2022-12-29T01:36:41.120Z,3.00
2022-12-29T01:39:09.709Z,1.70
2022-12-29T01:41:43.869Z,3.00
2022-12-29T01:44:31.693Z,3.73
2022-12-29T01:47:00.843Z,4.60
2022-12-29T01:49:31.278Z,3.47
2022-12-29T01:52:01.853Z,6.93
2022-12-29T01:54:30.981Z,5.50
2022-12-29T01:57:00.161Z,4.00
2022-12-29T01:59:32.770Z,6.13
2022-12-29T02:02:01.561Z,5.93
2022-12-29T02:04:30.074Z,4.03
2022-12-29T02:06:58.688Z,7.87
2022-12-29T02:09:28.642Z,6.17
2022-12-29T02:11:57.115Z,3.37
2022-12-29T02:14:25.692Z,4.80
2022-12-29T02:16:58.576Z,6.33
2022-12-29T02:19:44.754Z,6.77
2022-12-29T02:22:15.930Z,7.50
2022-12-29T02:24:54.887Z,4.87
2022-12-29T02:27:29.454Z,4.97
2022-12-29T02:30:10.944Z,6.87
2022-12-29T02:32:42.140Z,4.60
2022-12-29T02:35:11.707Z,7.27
2022-12-29T02:37:42.693Z,5.60
2022-12-29T02:40:13.375Z,9.07
2022-12-29T02:42:44.196Z,8.07
2022-12-29T02:45:14.552Z,8.10
2022-12-29T02:47:44.843Z,7.60
2022-12-29T02:50:15.213Z,6.43
2022-12-29T02:52:44.663Z,9.23
2022-12-29T02:55:12.588Z,9.70
2022-12-29T02:57:41.169Z,15.53
2022-12-29T03:00:10.196Z,10.57
2022-12-29T03:02:56.357Z,12.70
2022-12-29T03:05:28.325Z,10.60
2022-12-29T03:07:58.697Z,10.17
2022-12-29T03:10:35.502Z,18.00
2022-12-29T03:13:22.515Z,18.03
2022-12-29T03:16:03.192Z,12.43
2022-12-29T03:18:42.167Z,13.43
2022-12-29T03:21:13.126Z,8.10
2022-12-29T03:23:43.815Z,9.10
2022-12-29T03:26:13.166Z,13.07
2022-12-29T03:28:42.033Z,8.27
2022-12-29T03:31:10.776Z,9.77
2022-12-29T03:33:39.204Z,10.90
2022-12-29T03:36:08.601Z,7.03
2022-12-29T03:38:38.942Z,8.57
2022-12-29T03:41:07.976Z,9.33
2022-12-29T03:43:36.348Z,8.60
2022-12-29T03:46:04.780Z,8.47
2022-12-29T03:48:33.885Z,10.97
2022-12-29T03:51:03.006Z,7.33
2022-12-29T03:53:31.337Z,7.73
2022-12-29T03:56:01.057Z,9.03
2022-12-29T03:58:29.497Z,9.20
2022-12-29T04:00:57.856Z,14.10
2022-12-29T04:03:26.319Z,11.27
2022-12-29T04:05:54.890Z,11.23
2022-12-29T04:08:23.262Z,16.47
2022-12-29T04:10:51.808Z,8.93
2022-12-29T04:13:21.596Z,15.70
2022-12-29T04:15:50.043Z,11.83
2022-12-29T04:18:18.582Z,18.20
2022-12-29T04:21:01.459Z,12.60
2022-12-29T04:23:29.841Z,12.50
2022-12-29T04:25:59.543Z,8.53
2022-12-29T04:28:29.298Z,17.40
2022-12-29T04:30:57.914Z,11.30
2022-12-29T04:33:26.327Z,9.10
2022-12-29T04:35:55.208Z,9.93
2022-12-29T04:38:23.577Z,10.40
2022-12-29T04:40:52.042Z,12.17
2022-12-29T04:43:20.728Z,9.07
2022-12-29T04:45:50.599Z,12.37
2022-12-29T04:48:19.051Z,12.63
2022-12-29T04:50:47.401Z,11.13
2022-12-29T04:53:15.902Z,19.03
2022-12-29T04:55:44.438Z,12.43
2022-12-29T04:58:16.321Z,11.17
2022-12-29T05:00:50.509Z,8.97
2022-12-29T05:03:19.116Z,12.83
2022-12-29T05:05:47.664Z,11.10
2022-12-29T05:08:16.115Z,12.20
2022-12-29T05:10:46.877Z,15.53
2022-12-29T05:13:15.255Z,13.30
2022-12-29T05:15:43.832Z,16.87
2022-12-29T05:18:13.586Z,16.50
2022-12-29T05:20:42.409Z,10.37
2022-12-29T05:23:10.794Z,11.13
2022-12-29T05:25:39.189Z,12.67
2022-12-29T05:28:07.645Z,19.03
2022-12-29T05:30:36.016Z,21.37
2022-12-29T05:33:04.363Z,15.53
2022-12-29T05:35:34.133Z,17.40
2022-12-29T05:38:02.537Z,18.40
2022-12-29T05:40:31.166Z,15.80
2022-12-29T05:42:59.521Z,16.67
2022-12-29T05:45:27.847Z,20.63
2022-12-29T05:47:56.175Z,14.07
2022-12-29T05:50:24.519Z,19.37
2022-12-29T05:52:54.252Z,21.10
2022-12-29T05:55:22.645Z,17.73
2022-12-29T05:57:51.012Z,14.80
2022-12-29T06:00:19.557Z,15.00
2022-12-29T06:02:48.233Z,16.93
2022-12-29T06:05:16.815Z,13.77
2022-12-29T06:07:45.849Z,22.23
2022-12-29T06:10:15.627Z,19.20
2022-12-29T06:12:44.112Z,14.53
2022-12-29T06:15:13.078Z,14.10
2022-12-29T06:17:41.736Z,17.43
2022-12-29T06:20:10.708Z,16.97
2022-12-29T06:22:39.153Z,18.40
2022-12-29T06:25:08.582Z,15.23
2022-12-29T06:27:38.279Z,22.03
2022-12-29T06:30:07.005Z,19.33
2022-12-29T06:32:35.484Z,20.33
2022-12-29T06:35:03.888Z,17.03
2022-12-29T06:37:32.366Z,28.97
2022-12-29T06:40:00.807Z,26.47
2022-12-29T06:42:29.284Z,16.90
2022-12-29T06:45:00.065Z,19.90
2022-12-29T06:47:28.483Z,20.43
2022-12-29T06:49:56.862Z,16.67
2022-12-29T06:52:25.893Z,18.77
2022-12-29T06:54:54.289Z,17.13
2022-12-29T06:57:22.700Z,14.77
2022-12-29T06:59:51.117Z,11.73
2022-12-29T07:02:21.044Z,13.50
2022-12-29T07:04:49.649Z,14.90
2022-12-29T07:07:18.115Z,12.23
2022-12-29T07:09:46.665Z,13.83
2022-12-29T07:12:14.980Z,12.47
2022-12-29T07:14:43.803Z,13.37
2022-12-29T07:17:12.272Z,12.53
2022-12-29T07:19:45.869Z,16.80
2022-12-29T07:22:14.348Z,13.00
2022-12-29T07:24:44.232Z,10.53
2022-12-29T07:27:12.775Z,11.30
2022-12-29T07:29:41.128Z,11.87
2022-12-29T07:32:09.573Z,15.23
2022-12-29T07:34:37.988Z,14.43
2022-12-29T07:37:07.806Z,11.83
2022-12-29T07:39:36.210Z,19.97
2022-12-29T07:42:05.437Z,13.43
2022-12-29T07:44:33.864Z,18.60
2022-12-29T07:47:02.443Z,16.37
2022-12-29T07:49:33.847Z,10.00
2022-12-29T07:52:02.277Z,18.90
2022-12-29T07:54:32.086Z,17.57
2022-12-29T07:57:01.348Z,16.53
2022-12-29T07:59:29.746Z,17.50
2022-12-29T08:01:58.234Z,16.43
2022-12-29T08:04:26.803Z,12.93
2022-12-29T08:06:55.460Z,17.00
2022-12-29T08:09:24.334Z,16.60
2022-12-29T08:11:54.399Z,17.77
2022-12-29T08:14:22.832Z,17.23
2022-12-29T08:16:51.620Z,18.73
2022-12-29T08:19:20.108Z,18.63
2022-12-29T08:21:48.487Z,24.03
2022-12-29T08:24:16.905Z,15.63
2022-12-29T08:26:45.326Z,18.30
2022-12-29T08:29:15.120Z,14.60
2022-12-29T08:31:45.040Z,17.03
2022-12-29T08:34:13.590Z,18.20
2022-12-29T08:36:41.928Z,18.17
2022-12-29T08:39:10.377Z,15.00
2022-12-29T08:41:38.812Z,21.67
2022-12-29T08:44:07.427Z,16.97
2022-12-29T08:46:37.276Z,17.33
2022-12-29T08:49:05.745Z,15.30
2022-12-29T08:51:34.172Z,16.80
2022-12-29T08:54:02.563Z,22.47
2022-12-29T08:56:31.058Z,17.33
2022-12-29T08:58:59.462Z,12.33
2022-12-29T09:01:35.392Z,17.67
2022-12-29T09:04:21.021Z,19.23
2022-12-29T09:06:49.565Z,12.73
2022-12-29T09:09:18.117Z,11.70
2022-12-29T09:11:46.577Z,15.63
2022-12-29T09:14:15.042Z,16.80
2022-12-29T09:17:01.494Z,19.20
2022-12-29T09:19:31.254Z,15.23
2022-12-29T09:21:59.651Z,18.30
2022-12-29T09:24:28.162Z,18.23
2022-12-29T09:26:56.557Z,18.30
2022-12-29T09:29:25.300Z,15.67
2022-12-29T09:31:53.679Z,20.13
2022-12-29T09:34:22.095Z,17.57
2022-12-29T09:36:51.985Z,18.87
2022-12-29T09:39:20.347Z,18.67
2022-12-29T09:41:50.735Z,27.93
2022-12-29T09:44:20.048Z,20.37
2022-12-29T09:46:49.128Z,23.87
2022-12-29T09:49:19.628Z,16.67
2022-12-29T09:51:48.407Z,13.20
2022-12-29T09:54:22.726Z,25.23
2022-12-29T09:56:51.183Z,22.50
2022-12-29T09:59:20.314Z,26.63
2022-12-29T10:01:49.754Z,27.90
2022-12-29T10:04:18.287Z,20.97
2022-12-29T10:07:27.563Z,31.77
2022-12-29T10:09:40.046Z,28.60
2022-12-29T10:12:11.812Z,26.73
2022-12-29T10:14:44.514Z,26.77
2022-12-29T10:17:15.480Z,26.07
2022-12-29T10:19:50.705Z,21.77
2022-12-29T10:22:21.561Z,31.87
2022-12-29T10:24:51.707Z,25.63
2022-12-29T10:27:20.158Z,22.40
2022-12-29T10:29:50.992Z,23.40
2022-12-29T10:32:23.693Z,23.23
2022-12-29T10:34:52.587Z,21.33
2022-12-29T10:37:25.370Z,26.17
2022-12-29T10:40:01.883Z,33.63
2022-12-29T10:42:30.648Z,14.67
2022-12-29T10:44:59.207Z,26.50
2022-12-29T10:47:28.070Z,19.37
2022-12-29T10:49:56.449Z,21.43
2022-12-29T10:52:24.998Z,22.00
2022-12-29T10:54:57.144Z,20.57
2022-12-29T10:57:29.368Z,24.53
2022-12-29T10:59:57.741Z,30.77
2022-12-29T11:02:33.452Z,31.30
2022-12-29T11:05:05.863Z,21.80
2022-12-29T11:07:34.703Z,21.13
2022-12-29T11:10:18.016Z,15.67
2022-12-29T11:12:57.329Z,14.20
2022-12-29T11:15:25.832Z,17.30
2022-12-29T11:17:54.758Z,15.77
2022-12-29T11:20:30.063Z,14.10
2022-12-29T11:22:58.497Z,17.20
2022-12-29T11:25:26.997Z,16.37
2022-12-29T11:28:00.076Z,23.33
2022-12-29T11:30:29.210Z,18.30
2022-12-29T11:32:57.739Z,19.67
2022-12-29T11:35:32.682Z,14.13
2022-12-29T11:38:01.170Z,17.87
2022-12-29T11:40:29.721Z,18.30
2022-12-29T11:42:58.398Z,13.30
2022-12-29T11:45:28.525Z,16.43
2022-12-29T11:47:57.561Z,13.67
2022-12-29T11:50:30.417Z,13.77
2022-12-29T11:53:00.749Z,15.77
2022-12-29T11:55:29.177Z,14.40
2022-12-29T11:57:58.072Z,13.00
2022-12-29T12:00:27.907Z,16.97
2022-12-29T12:02:57.750Z,20.33
2022-12-29T12:05:28.795Z,20.63
2022-12-29T12:08:02.231Z,16.53
2022-12-29T12:10:31.756Z,15.47
2022-12-29T12:13:02.897Z,15.63
2022-12-29T12:15:43.455Z,18.20
2022-12-29T12:18:14.935Z,14.73
2022-12-29T12:20:47.556Z,15.80
2022-12-29T12:23:19.890Z,18.40
2022-12-29T12:25:51.969Z,18.23
2022-12-29T12:28:21.844Z,18.97
2022-12-29T12:30:53.035Z,9.00
2022-12-29T12:33:23.770Z,14.87
2022-12-29T12:36:09.716Z,18.73
2022-12-29T12:38:39.862Z,15.70
2022-12-29T12:41:10.077Z,11.20
2022-12-29T12:43:42.995Z,13.60
2022-12-29T12:46:17.458Z,17.43
2022-12-29T12:48:56.798Z,19.37
2022-12-29T12:51:27.164Z,14.67
2022-12-29T12:54:04.946Z,23.60
2022-12-29T12:56:38.556Z,18.57
2022-12-29T12:59:10.123Z,16.37
2022-12-29T13:01:45.574Z,19.37
2022-12-29T13:04:20.966Z,14.80
2022-12-29T13:06:50.686Z,15.80
2022-12-29T13:09:28.897Z,17.93
2022-12-29T13:11:59.236Z,24.57
2022-12-29T13:14:31.354Z,14.87
2022-12-29T13:17:02.555Z,19.90
2022-12-29T13:19:33.264Z,15.17
2022-12-29T13:22:06.922Z,21.60
2022-12-29T13:24:37.589Z,17.70
2022-12-29T13:27:08.266Z,17.70
2022-12-29T13:29:37.284Z,16.90
2022-12-29T13:32:13.719Z,21.73
2022-12-29T13:34:43.491Z,15.60
2022-12-29T13:37:15.402Z,11.07
2022-12-29T13:39:44.320Z,12.70
2022-12-29T13:42:12.708Z,10.83
2022-12-29T13:44:41.925Z,9.43
2022-12-29T13:47:15.352Z,10.97
2022-12-29T13:49:43.872Z,16.47
2022-12-29T13:52:14.930Z,14.80
2022-12-29T13:54:45.540Z,12.50
2022-12-29T13:57:15.634Z,15.37
2022-12-29T13:59:46.044Z,12.80
2022-12-29T14:02:18.555Z,14.93
2022-12-29T14:04:58.157Z,11.87
2022-12-29T14:07:26.769Z,10.20
2022-12-29T14:09:55.423Z,14.50
2022-12-29T14:12:24.726Z,12.90
2022-12-29T14:14:53.124Z,18.07
2022-12-29T14:17:23.514Z,16.47
2022-12-29T14:19:55.167Z,12.27
2022-12-29T14:22:32.361Z,17.13
2022-12-29T14:25:02.517Z,13.30
2022-12-29T14:27:46.853Z,15.37
2022-12-29T14:30:34.178Z,7.83
2022-12-29T14:33:07.139Z,10.60
2022-12-29T14:35:45.426Z,16.37
2022-12-29T14:38:18.549Z,20.00
2022-12-29T14:40:48.922Z,16.13
2022-12-29T14:43:20.168Z,9.13
2022-12-29T14:45:51.799Z,15.47
2022-12-29T14:48:25.478Z,9.23
2022-12-29T14:50:53.885Z,10.83
2022-12-29T14:53:37.067Z,15.90
2022-12-29T14:56:05.659Z,17.67
2022-12-29T14:58:34.698Z,11.50
2022-12-29T15:01:03.116Z,12.83
2022-12-29T15:03:36.259Z,13.10
2022-12-29T15:06:09.697Z,15.23
2022-12-29T15:08:39.637Z,14.00
2022-12-29T15:11:09.303Z,11.67
2022-12-29T15:13:38.366Z,9.97
2022-12-29T15:16:23.610Z,16.07
2022-12-29T15:18:53.468Z,12.07
2022-12-29T15:21:23.249Z,21.27
2022-12-29T15:23:51.843Z,19.07
2022-12-29T15:26:23.753Z,15.43
2022-12-29T15:28:52.616Z,15.10
2022-12-29T15:31:28.043Z,15.27
2022-12-29T15:34:05.892Z,15.00
2022-12-29T15:36:37.709Z,15.07
2022-12-29T15:39:20.454Z,16.33
2022-12-29T15:42:01.436Z,15.17
2022-12-29T15:44:31.418Z,17.73
2022-12-29T15:46:59.927Z,14.83
2022-12-29T15:49:33.105Z,14.67
2022-12-29T15:52:04.242Z,13.73
2022-12-29T15:54:32.823Z,21.87
2022-12-29T15:57:01.185Z,12.70
2022-12-29T15:59:29.951Z,14.57
2022-12-29T16:01:58.558Z,14.90
2022-12-29T16:04:27.301Z,12.37
2022-12-29T16:07:00.572Z,9.53
2022-12-29T16:09:32.589Z,16.80
2022-12-29T16:12:01.290Z,12.33
2022-12-29T16:14:31.272Z,18.10
2022-12-29T16:17:00.279Z,17.40
2022-12-29T16:19:32.183Z,13.70
2022-12-29T16:22:02.045Z,11.77
2022-12-29T16:24:31.981Z,6.87
2022-12-29T16:27:01.265Z,19.10
2022-12-29T16:29:30.134Z,14.37
2022-12-29T16:32:03.978Z,12.67
2022-12-29T16:34:33.007Z,13.10
2022-12-29T16:37:03.916Z,15.57
2022-12-29T16:39:34.128Z,12.67
2022-12-29T16:42:02.691Z,13.80
2022-12-29T16:44:31.791Z,13.60
2022-12-29T16:47:01.192Z,9.40
2022-12-29T16:49:31.747Z,12.83
2022-12-29T16:52:00.281Z,16.67
2022-12-29T16:54:31.727Z,17.23
2022-12-29T16:57:00.255Z,9.77
2022-12-29T16:59:35.607Z,18.07
2022-12-29T17:02:08.915Z,18.00
2022-12-29T17:04:37.628Z,10.47
2022-12-29T17:07:05.983Z,16.10
2022-12-29T17:09:35.925Z,11.43
2022-12-29T17:12:10.870Z,11.97
2022-12-29T17:14:41.910Z,11.43
2022-12-29T17:17:13.418Z,8.60
2022-12-29T17:19:42.015Z,11.17
2022-12-29T17:22:13.744Z,10.73
2022-12-29T17:24:43.561Z,11.00
2022-12-29T17:27:12.290Z,11.50
2022-12-29T17:29:41.415Z,9.53
2022-12-29T17:32:12.534Z,15.17
2022-12-29T17:34:41.664Z,14.97
2022-12-29T17:37:13.325Z,14.80
2022-12-29T17:39:43.135Z,12.87
2022-12-29T17:42:11.721Z,15.63
2022-12-29T17:44:40.128Z,18.10
2022-12-29T17:47:10.327Z,11.20
2022-12-29T17:49:38.704Z,15.63
2022-12-29T17:52:07.248Z,14.83
2022-12-29T17:54:36.124Z,13.73
2022-12-29T17:57:06.029Z,14.20
2022-12-29T17:59:34.613Z,14.00
2022-12-29T18:02:03.100Z,12.63
2022-12-29T18:04:31.711Z,19.67
2022-12-29T18:06:59.980Z,16.60
2022-12-29T18:09:28.547Z,8.97
2022-12-29T18:11:57.025Z,14.77
2022-12-29T18:14:26.824Z,13.77
2022-12-29T18:16:55.998Z,18.37
2022-12-29T18:19:24.570Z,15.73
2022-12-29T18:21:53.186Z,16.57
2022-12-29T18:24:21.777Z,19.97
2022-12-29T18:26:50.161Z,20.07
2022-12-29T18:29:18.506Z,18.00
2022-12-29T18:31:48.302Z,19.43
2022-12-29T18:34:17.094Z,17.37
2022-12-29T18:36:45.509Z,16.90
2022-12-29T18:39:14.184Z,13.70
2022-12-29T18:41:42.600Z,18.53
2022-12-29T18:44:12.649Z,12.40
2022-12-29T18:46:41.477Z,16.53
2022-12-29T18:49:14.411Z,21.80
2022-12-29T18:51:42.883Z,18.97
2022-12-29T18:54:12.109Z,16.30
2022-12-29T18:56:40.445Z,19.10
2022-12-29T18:59:09.719Z,19.80
2022-12-29T19:01:43.651Z,20.27
2022-12-29T19:04:13.815Z,18.17
2022-12-29T19:06:43.581Z,17.17
2022-12-29T19:09:12.126Z,20.07
2022-12-29T19:11:40.529Z,16.73
2022-12-29T19:14:10.505Z,26.03
2022-12-29T19:16:39.119Z,20.90
2022-12-29T19:19:09.866Z,11.80
2022-12-29T19:21:38.656Z,22.23
2022-12-29T19:24:08.786Z,23.17
2022-12-29T19:26:37.676Z,21.97
2022-12-29T19:29:06.274Z,29.70
2022-12-29T19:31:34.641Z,23.93
2022-12-29T19:34:03.502Z,20.43
2022-12-29T19:36:31.898Z,23.33
2022-12-29T19:39:00.492Z,20.83
2022-12-29T19:41:30.244Z,16.67
2022-12-29T19:43:58.933Z,21.40
2022-12-29T19:46:27.447Z,16.23
2022-12-29T19:48:58.886Z,23.40
2022-12-29T19:51:27.604Z,28.90
2022-12-29T19:53:56.007Z,17.77
2022-12-29T19:56:24.554Z,16.80
2022-12-29T19:58:54.287Z,21.57
2022-12-29T20:01:23.596Z,17.27
2022-12-29T20:03:52.289Z,26.50
2022-12-29T20:06:26.637Z,23.27
2022-12-29T20:08:55.534Z,20.83
2022-12-29T20:11:23.932Z,21.00
2022-12-29T20:13:53.643Z,22.97
2022-12-29T20:16:22.279Z,22.53
2022-12-29T20:18:50.853Z,15.20
2022-12-29T20:21:19.777Z,23.93
2022-12-29T20:23:48.835Z,24.80
2022-12-29T20:26:17.347Z,23.33
2022-12-29T20:28:45.747Z,30.27
2022-12-29T20:31:19.584Z,21.90
2022-12-29T20:33:48.033Z,16.63
2022-12-29T20:36:16.918Z,24.43
2022-12-29T20:38:45.344Z,23.80
2022-12-29T20:41:13.969Z,22.13
2022-12-29T20:43:42.420Z,24.17
2022-12-29T20:46:11.171Z,17.77
2022-12-29T20:48:41.174Z,25.20
2022-12-29T20:51:10.036Z,19.77
2022-12-29T20:53:38.554Z,23.47
2022-12-29T20:56:07.677Z,21.80
2022-12-29T20:58:52.689Z,25.83
2022-12-29T21:01:25.116Z,24.53
2022-12-29T21:03:54.979Z,22.03
2022-12-29T21:06:23.476Z,26.87
2022-12-29T21:08:52.456Z,20.50
2022-12-29T21:11:21.533Z,26.20
2022-12-29T21:13:49.904Z,26.03
2022-12-29T21:16:19.051Z,30.57
2022-12-29T21:18:47.522Z,22.33
2022-12-29T21:21:18.035Z,24.80
2022-12-29T21:23:47.611Z,27.97
2022-12-29T21:26:16.465Z,32.07
2022-12-29T21:28:46.210Z,21.77
2022-12-29T21:31:26.056Z,24.83
2022-12-29T21:33:54.527Z,28.73
2022-12-29T21:36:24.602Z,22.43
2022-12-29T21:38:52.981Z,21.40
2022-12-29T21:41:21.379Z,22.63
2022-12-29T21:44:03.914Z,20.53
2022-12-29T21:46:34.171Z,21.73
2022-12-29T21:49:02.755Z,19.43
2022-12-29T21:51:50.036Z,21.30
2022-12-29T21:54:39.451Z,17.97
2022-12-29T21:57:07.845Z,28.37
2022-12-29T21:59:53.801Z,23.60
2022-12-29T22:02:40.669Z,18.27
2022-12-29T22:05:27.255Z,18.03
2022-12-29T22:08:14.611Z,18.93
2022-12-29T22:11:01.532Z,23.53
2022-12-29T22:13:30.241Z,21.37
2022-12-29T22:15:58.760Z,19.20
2022-12-29T22:18:27.170Z,16.77
2022-12-29T22:20:55.789Z,17.40
2022-12-29T22:23:26.029Z,16.63
2022-12-29T22:25:55.917Z,22.43
2022-12-29T22:28:24.657Z,23.03
2022-12-29T22:30:53.165Z,23.10
2022-12-29T22:33:21.629Z,13.93
2022-12-29T22:35:50.149Z,22.97
2022-12-29T22:38:19.986Z,19.93
2022-12-29T22:40:49.865Z,16.07
2022-12-29T22:43:19.917Z,14.20
2022-12-29T22:45:48.650Z,15.27
2022-12-29T22:48:17.087Z,20.20
2022-12-29T22:50:45.484Z,19.33
2022-12-29T22:53:13.902Z,16.00
2022-12-29T22:55:42.293Z,22.40
2022-12-29T22:58:12.161Z,20.77
2022-12-29T23:00:41.149Z,16.83
2022-12-29T23:03:09.839Z,23.17
2022-12-29T23:05:38.377Z,17.87
2022-12-29T23:08:06.915Z,16.40
2022-12-29T23:10:35.293Z,19.67
2022-12-29T23:13:05.998Z,17.17
2022-12-29T23:15:35.740Z,16.97
2022-12-29T23:18:04.149Z,20.67
2022-12-29T23:20:32.693Z,18.30
2022-12-29T23:23:01.260Z,14.53
2022-12-29T23:25:29.672Z,17.97
2022-12-29T23:27:58.090Z,17.57
2022-12-29T23:30:26.536Z,15.97
2022-12-29T23:32:56.349Z,14.73
2022-12-29T23:35:24.851Z,17.87
2022-12-29T23:37:53.236Z,15.77
2022-12-29T23:40:21.746Z,17.83
2022-12-29T23:42:53.096Z,15.70
2022-12-29T23:45:21.520Z,11.20
2022-12-29T23:47:49.934Z,20.40
2022-12-29T23:50:19.919Z,19.17
2022-12-29T23:52:48.397Z,16.10
2022-12-29T23:55:16.854Z,15.23
2022-12-29T23:57:45.451Z,15.80
